Time,TemperatureF,DewpointF,PressureIn,WindDirection,WindDirectionDegrees,WindSpeedMPH,WindSpeedGustMPH,Humidity,HourlyPrecipIn,Conditions,Clouds,dailyrainin,SoftwareType,DateUTC
2013-06-08 00:21:00,-999.0,-99.9,30.03,North,-999,-999.0,-999.0,-999,0.00,,,0.00,weatherlink.com 1.10,2013-06-08 07:21:00,
2013-06-08 00:36:00,55.0,50.0,30.03,SSE,161,20.0,26.0,84,0.00,,,0.00,weatherlink.com 1.10,2013-06-08 07:36:00,
2013-06-08 00:51:00,54.4,50.0,30.04,SSE,149,19.0,23.0,84,0.00,,,0.00,weatherlink.com 1.10,2013-06-08 07:51:00,
2013-06-08 01:06:00,54.3,50.0,30.04,South,169,20.0,24.0,84,0.00,,,0.00,weatherlink.com 1.10,2013-06-08 08:06:00,
2013-06-08 01:21:00,54.0,50.0,30.05,SSE,160,22.0,26.0,85,0.00,,,0.00,weatherlink.com 1.10,2013-06-08 08:21:00,
2013-06-08 01:36:00,53.8,49.0,30.05,SSE,156,19.0,25.0,85,0.00,,,0.00,weatherlink.com 1.10,2013-06-08 08:36:00,
2013-06-08 01:52:00,53.5,50.0,30.05,SSE,167,18.0,20.0,87,0.00,,,0.00,weatherlink.com 1.10,2013-06-08 08:52:00,
2013-06-08 02:07:00,53.2,50.0,30.04,South,178,14.0,24.0,87,0.00,,,0.00,weatherlink.com 1.10,2013-06-08 09:07:00,
2013-06-08 02:22:00,53.1,49.0,30.05,SSE,156,14.0,24.0,87,0.00,,,0.00,weatherlink.com 1.10,2013-06-08 09:22:00,
2013-06-08 02:47:00,53.2,50.0,30.05,South,178,20.0,22.0,88,0.00,,,0.00,weatherlink.com 1.10,2013-06-08 09:47:00,
2013-06-08 02:52:00,53.2,50.0,30.05,SSE,163,18.0,24.0,88,0.00,,,0.00,weatherlink.com 1.10,2013-06-08 09:52:00,
2013-06-08 03:07:00,53.1,50.0,30.04,SSE,159,22.0,24.0,89,0.00,,,0.00,weatherlink.com 1.10,2013-06-08 10:07:00,
2013-06-08 03:22:00,53.1,50.0,30.04,SE,146,15.0,23.0,88,0.00,,,0.00,weatherlink.com 1.10,2013-06-08 10:22:00,
2013-06-08 03:37:00,53.0,49.0,30.06,SSE,164,11.0,21.0,87,0.00,,,0.00,weatherlink.com 1.10,2013-06-08 10:37:00,
2013-06-08 03:52:00,52.9,49.0,30.06,SSE,157,7.0,15.0,86,0.00,,,0.00,weatherlink.com 1.10,2013-06-08 10:52:00,
2013-06-08 04:07:00,52.8,49.0,30.06,South,180,5.0,11.0,86,0.00,,,0.00,weatherlink.com 1.10,2013-06-08 11:07:00,
2013-06-08 04:22:00,52.8,49.0,30.06,South,179,18.0,22.0,88,0.00,,,0.00,weatherlink.com 1.10,2013-06-08 11:22:00,
2013-06-08 04:37:00,52.7,49.0,30.06,South,188,15.0,24.0,88,0.00,,,0.00,weatherlink.com 1.10,2013-06-08 11:37:00,
2013-06-08 04:52:00,52.6,49.0,30.06,SSE,154,11.0,22.0,88,0.00,,,0.00,weatherlink.com 1.10,2013-06-08 11:52:00,
2013-06-08 05:07:00,52.4,49.0,30.07,South,170,16.0,21.0,89,0.00,,,0.00,weatherlink.com 1.10,2013-06-08 12:07:00,
2013-06-08 05:22:00,52.3,49.0,30.06,South,174,13.0,23.0,89,0.00,,,0.00,weatherlink.com 1.10,2013-06-08 12:22:00,
2013-06-08 05:37:00,52.3,49.0,30.06,SSE,168,8.0,19.0,88,0.00,,,0.00,weatherlink.com 1.10,2013-06-08 12:37:00,
2013-06-08 05:52:00,52.2,49.0,30.05,SSE,153,11.0,12.0,87,0.00,,,0.00,weatherlink.com 1.10,2013-06-08 12:52:00,
2013-06-08 06:07:00,52.2,48.0,30.07,South,182,8.0,10.0,86,0.00,,,0.00,weatherlink.com 1.10,2013-06-08 13:07:00,
2013-06-08 06:22:00,52.5,49.0,30.07,South,173,15.0,16.0,87,0.00,,,0.00,weatherlink.com 1.10,2013-06-08 13:22:00,
2013-06-08 06:37:00,52.8,49.0,30.07,SSE,164,16.0,23.0,88,0.00,,,0.00,weatherlink.com 1.10,2013-06-08 13:37:00,
2013-06-08 06:52:00,52.6,50.0,30.06,SSE,153,17.0,25.0,89,0.00,,,0.00,weatherlink.com 1.10,2013-06-08 13:52:00,
2013-06-08 07:07:00,52.5,49.0,30.06,South,184,16.0,22.0,89,0.00,,,0.00,weatherlink.com 1.10,2013-06-08 14:07:00,
2013-06-08 07:22:00,52.6,50.0,30.06,SSW,210,18.0,24.0,89,0.00,,,0.00,weatherlink.com 1.10,2013-06-08 14:22:00,
2013-06-08 07:37:00,52.7,50.0,30.06,South,173,22.0,26.0,89,0.00,,,0.00,weatherlink.com 1.10,2013-06-08 14:37:00,
2013-06-08 07:52:00,52.9,50.0,30.05,SSE,168,21.0,24.0,90,0.00,,,0.00,weatherlink.com 1.10,2013-06-08 14:52:00,
2013-06-08 08:07:00,53.4,50.0,30.06,SSE,155,19.0,23.0,89,0.00,,,0.00,weatherlink.com 1.10,2013-06-08 15:07:00,
2013-06-08 08:22:00,53.6,50.0,30.06,South,180,20.0,26.0,88,0.00,,,0.00,weatherlink.com 1.10,2013-06-08 15:22:00,
2013-06-08 08:37:00,53.9,51.0,30.06,SSE,161,20.0,26.0,89,0.00,,,0.00,weatherlink.com 1.10,2013-06-08 15:37:00,
2013-06-08 08:52:00,54.0,51.0,30.07,South,171,19.0,23.0,89,0.00,,,0.00,weatherlink.com 1.10,2013-06-08 15:52:00,
2013-06-08 09:07:00,54.0,51.0,30.07,SSE,162,13.0,24.0,88,0.00,,,0.00,weatherlink.com 1.10,2013-06-08 16:07:00,
2013-06-08 09:22:00,54.3,51.0,30.06,SSE,157,18.0,22.0,88,0.00,,,0.00,weatherlink.com 1.10,2013-06-08 16:22:00,
2013-06-08 09:37:00,54.5,51.0,30.07,SSE,167,13.0,20.0,88,0.00,,,0.00,weatherlink.com 1.10,2013-06-08 16:37:00,
2013-06-08 09:52:00,54.7,51.0,30.07,South,191,14.0,19.0,87,0.00,,,0.00,weatherlink.com 1.10,2013-06-08 16:52:00,
2013-06-08 10:07:00,54.8,51.0,30.07,South,184,17.0,19.0,87,0.00,,,0.00,weatherlink.com 1.10,2013-06-08 17:07:00,
2013-06-08 10:22:00,55.0,51.0,30.07,SSE,168,15.0,20.0,86,0.00,,,0.00,weatherlink.com 1.10,2013-06-08 17:22:00,
2013-06-08 10:37:00,56.0,52.0,30.07,SSE,159,14.0,18.0,87,0.00,,,0.00,weatherlink.com 1.10,2013-06-08 17:37:00,
2013-06-08 10:52:00,56.0,52.0,30.08,South,177,14.0,19.0,85,0.00,,,0.00,weatherlink.com 1.10,2013-06-08 17:52:00,
2013-06-08 11:07:00,56.0,52.0,30.07,SSE,166,9.0,18.0,85,0.00,,,0.00,weatherlink.com 1.10,2013-06-08 18:07:00,
2013-06-08 11:22:00,56.2,52.0,30.08,South,186,10.0,20.0,86,0.00,,,0.00,weatherlink.com 1.10,2013-06-08 18:22:00,
2013-06-08 11:37:00,56.1,52.0,30.08,SSE,167,16.0,17.0,85,0.00,,,0.00,weatherlink.com 1.10,2013-06-08 18:37:00,
2013-06-08 11:52:00,56.4,51.0,30.08,SSE,167,14.0,18.0,83,0.00,,,0.00,weatherlink.com 1.10,2013-06-08 18:52:00,
2013-06-08 12:07:00,57.2,51.0,30.07,SSE,157,18.0,20.0,80,0.00,,,0.00,weatherlink.com 1.10,2013-06-08 19:07:00,
2013-06-08 12:23:00,57.8,52.0,30.07,South,179,17.0,22.0,81,0.00,,,0.00,weatherlink.com 1.10,2013-06-08 19:23:00,
2013-06-08 12:38:00,58.7,54.0,30.07,South,187,12.0,20.0,83,0.00,,,0.00,weatherlink.com 1.10,2013-06-08 19:38:00,
2013-06-08 12:53:00,59.3,53.0,30.06,South,178,17.0,22.0,80,0.00,,,0.00,weatherlink.com 1.10,2013-06-08 19:53:00,
2013-06-08 13:08:00,59.3,54.0,30.07,South,191,12.0,21.0,82,0.00,,,0.00,weatherlink.com 1.10,2013-06-08 20:08:00,
2013-06-08 13:23:00,59.8,53.0,30.06,South,188,9.0,20.0,79,0.00,,,0.00,weatherlink.com 1.10,2013-06-08 20:23:00,
2013-06-08 13:38:00,60.9,55.0,30.06,South,184,13.0,19.0,81,0.00,,,0.00,weatherlink.com 1.10,2013-06-08 20:38:00,
2013-06-08 13:53:00,60.5,53.0,30.06,SSE,164,14.0,20.0,77,0.00,,,0.00,weatherlink.com 1.10,2013-06-08 20:53:00,
2013-06-08 14:08:00,60.9,53.0,30.06,SSE,165,19.0,19.0,76,0.00,,,0.00,weatherlink.com 1.10,2013-06-08 21:08:00,
2013-06-08 14:23:00,60.0,52.0,30.06,SSE,166,9.0,20.0,75,0.00,,,0.00,weatherlink.com 1.10,2013-06-08 21:23:00,
2013-06-08 14:38:00,60.1,53.0,30.06,South,187,15.0,19.0,77,0.00,,,0.00,weatherlink.com 1.10,2013-06-08 21:38:00,
2013-06-08 14:53:00,60.1,53.0,30.06,SSW,209,12.0,17.0,76,0.00,,,0.00,weatherlink.com 1.10,2013-06-08 21:53:00,
2013-06-08 15:08:00,60.2,53.0,30.06,South,187,12.0,17.0,77,0.00,,,0.00,weatherlink.com 1.10,2013-06-08 22:08:00,
2013-06-08 15:23:00,60.2,53.0,30.06,SSW,197,12.0,16.0,77,0.00,,,0.00,weatherlink.com 1.10,2013-06-08 22:23:00,
2013-06-08 15:38:00,61.5,54.0,30.07,SSE,162,12.0,17.0,77,0.00,,,0.00,weatherlink.com 1.10,2013-06-08 22:38:00,
2013-06-08 15:53:00,60.6,53.0,30.07,South,181,12.0,16.0,77,0.00,,,0.00,weatherlink.com 1.10,2013-06-08 22:53:00,
2013-06-08 16:08:00,60.8,54.0,30.06,South,178,15.0,16.0,78,0.00,,,0.00,weatherlink.com 1.10,2013-06-08 23:08:00,
2013-06-08 16:23:00,61.4,55.0,30.06,SSE,163,12.0,14.0,80,0.00,,,0.00,weatherlink.com 1.10,2013-06-08 23:23:00,
2013-06-08 16:38:00,60.9,54.0,30.06,South,190,7.0,14.0,78,0.00,,,0.00,weatherlink.com 1.10,2013-06-08 23:38:00,
2013-06-08 16:53:00,60.8,54.0,30.06,SSW,195,12.0,15.0,77,0.00,,,0.00,weatherlink.com 1.10,2013-06-08 23:53:00,
2013-06-08 17:08:00,60.7,53.0,30.05,South,191,10.0,15.0,77,0.00,,,0.00,weatherlink.com 1.10,2013-06-09 00:08:00,
2013-06-08 17:23:00,60.8,55.0,30.05,South,180,12.0,17.0,80,0.00,,,0.00,weatherlink.com 1.10,2013-06-09 00:23:00,
2013-06-08 17:38:00,60.5,53.0,30.05,SSE,167,13.0,18.0,77,0.00,,,0.00,weatherlink.com 1.10,2013-06-09 00:38:00,
2013-06-08 17:53:00,60.7,54.0,30.04,SSW,201,8.0,16.0,78,0.00,,,0.00,weatherlink.com 1.10,2013-06-09 00:53:00,
2013-06-08 18:08:00,60.6,54.0,30.04,South,191,10.0,14.0,79,0.00,,,0.00,weatherlink.com 1.10,2013-06-09 01:08:00,
2013-06-08 18:23:00,60.2,53.0,30.04,South,178,9.0,14.0,78,0.00,,,0.00,weatherlink.com 1.10,2013-06-09 01:23:00,
2013-06-08 18:38:00,60.3,53.0,30.03,SSW,202,10.0,11.0,78,0.00,,,0.00,weatherlink.com 1.10,2013-06-09 01:38:00,
2013-06-08 18:53:00,60.1,53.0,30.03,SSW,198,7.0,11.0,76,0.00,,,0.00,weatherlink.com 1.10,2013-06-09 01:53:00,
2013-06-08 19:08:00,60.0,53.0,30.03,SSW,206,8.0,11.0,77,0.00,,,0.00,weatherlink.com 1.10,2013-06-09 02:08:00,
2013-06-08 19:23:00,59.8,53.0,30.02,SSW,207,7.0,11.0,78,0.00,,,0.00,weatherlink.com 1.10,2013-06-09 02:23:00,
2013-06-08 19:38:00,59.4,53.0,30.02,SSW,200,6.0,10.0,79,0.00,,,0.00,weatherlink.com 1.10,2013-06-09 02:38:00,
2013-06-08 19:53:00,59.3,53.0,30.02,SW,216,4.0,10.0,80,0.00,,,0.00,weatherlink.com 1.10,2013-06-09 02:53:00,
2013-06-08 20:08:00,59.4,53.0,30.02,SSW,205,7.0,10.0,79,0.00,,,0.00,weatherlink.com 1.10,2013-06-09 03:08:00,
2013-06-08 20:23:00,59.5,53.0,30.01,SSW,197,4.0,8.0,80,0.00,,,0.00,weatherlink.com 1.10,2013-06-09 03:23:00,
2013-06-08 20:38:00,59.6,53.0,30.01,South,179,5.0,8.0,79,0.00,,,0.00,weatherlink.com 1.10,2013-06-09 03:38:00,
2013-06-08 20:53:00,59.2,53.0,30.01,South,187,6.0,9.0,81,0.00,,,0.00,weatherlink.com 1.10,2013-06-09 03:53:00,
2013-06-08 21:08:00,58.5,53.0,30.01,SSW,195,5.0,7.0,82,0.00,,,0.00,weatherlink.com 1.10,2013-06-09 04:08:00,
2013-06-08 21:23:00,58.2,53.0,30.01,SSW,198,5.0,6.0,83,0.00,,,0.00,weatherlink.com 1.10,2013-06-09 04:23:00,
2013-06-08 21:38:00,57.9,53.0,30.02,SSW,194,6.0,6.0,84,0.00,,,0.00,weatherlink.com 1.10,2013-06-09 04:38:00,
2013-06-08 21:53:00,57.7,53.0,30.02,South,188,4.0,6.0,85,0.00,,,0.00,weatherlink.com 1.10,2013-06-09 04:53:00,
2013-06-08 22:08:00,57.6,53.0,30.02,South,186,2.0,5.0,85,0.00,,,0.00,weatherlink.com 1.10,2013-06-09 05:08:00,
2013-06-08 22:23:00,57.5,53.0,30.02,South,176,3.0,5.0,84,0.00,,,0.00,weatherlink.com 1.10,2013-06-09 05:23:00,
2013-06-08 22:38:00,57.5,52.0,30.02,SSW,199,6.0,7.0,83,0.00,,,0.00,weatherlink.com 1.10,2013-06-09 05:38:00,
2013-06-08 22:53:00,57.3,52.0,30.02,South,183,2.0,7.0,83,0.00,,,0.00,weatherlink.com 1.10,2013-06-09 05:53:00,
2013-06-08 23:08:00,57.1,52.0,30.02,SSW,200,0.0,5.0,84,0.00,,,0.00,weatherlink.com 1.10,2013-06-09 06:08:00,
2013-06-08 23:24:00,56.9,53.0,30.02,SSW,208,3.0,4.0,85,0.00,,,0.00,weatherlink.com 1.10,2013-06-09 06:24:00,
2013-06-08 23:39:00,56.9,53.0,30.02,South,184,4.0,7.0,87,0.00,,,0.00,weatherlink.com 1.10,2013-06-09 06:39:00,
2013-06-08 23:54:00,56.7,53.0,30.02,SSW,198,5.0,8.0,88,0.00,,,0.00,weatherlink.com 1.10,2013-06-09 06:54:00,